createdAt,value
2022-08-08T00:00:54.305Z,24.90
2022-08-08T00:03:31.253Z,24.90
2022-08-08T00:06:14.799Z,24.90
2022-08-08T00:09:16.002Z,24.90
2022-08-08T00:12:10.381Z,24.90
2022-08-08T00:15:05.328Z,24.80
2022-08-08T00:18:03.688Z,24.80
2022-08-08T00:20:57.945Z,24.80
2022-08-08T00:23:52.666Z,24.70
2022-08-08T00:26:47.783Z,24.70
2022-08-08T00:29:44.735Z,24.70
2022-08-08T00:32:38.839Z,24.70
2022-08-08T00:35:39.120Z,24.70
2022-08-08T00:38:52.002Z,24.50
2022-08-08T00:42:09.212Z,24.40
2022-08-08T00:45:21.329Z,24.30
2022-08-08T00:48:58.989Z,24.10
2022-08-08T00:55:08.160Z,24.00
2022-08-08T00:58:30.612Z,23.90
2022-08-08T01:01:38.421Z,23.90
2022-08-08T01:04:52.962Z,23.80
2022-08-08T01:08:20.690Z,23.80
2022-08-08T01:11:38.457Z,23.80
2022-08-08T01:15:26.044Z,23.70
2022-08-08T01:18:25.253Z,23.60
2022-08-08T01:22:07.147Z,23.60
2022-08-08T01:24:53.882Z,23.60
2022-08-08T01:28:17.919Z,23.70
2022-08-08T01:32:15.681Z,23.70
2022-08-08T01:35:15.476Z,23.70
2022-08-08T01:38:33.946Z,23.70
2022-08-08T01:41:34.342Z,23.80
2022-08-08T01:44:34.202Z,23.80
2022-08-08T01:48:14.716Z,23.80
2022-08-08T01:50:38.106Z,23.80
2022-08-08T01:55:16.513Z,23.80
2022-08-08T01:56:37.432Z,23.70
2022-08-08T02:00:03.082Z,23.70
2022-08-08T02:03:07.526Z,23.70
2022-08-08T02:06:04.256Z,23.60
2022-08-08T02:09:03.099Z,23.60
2022-08-08T02:12:00.824Z,23.60
2022-08-08T02:14:59.062Z,23.50
2022-08-08T02:17:55.342Z,23.50
2022-08-08T02:21:13.466Z,23.50
2022-08-08T02:24:31.573Z,23.40
2022-08-08T02:27:26.066Z,23.40
2022-08-08T02:30:25.594Z,23.40
2022-08-08T02:34:00.260Z,23.40
2022-08-08T02:36:31.823Z,23.30
2022-08-08T02:39:58.499Z,23.40
2022-08-08T02:44:42.314Z,23.30
2022-08-08T02:46:45.090Z,23.30
2022-08-08T02:49:59.012Z,23.30
2022-08-08T02:53:16.892Z,23.30
2022-08-08T02:56:34.119Z,23.20
2022-08-08T02:59:57.458Z,23.20
2022-08-08T03:05:00.611Z,23.10
2022-08-08T03:07:13.442Z,23.10
2022-08-08T03:10:37.861Z,23.00
2022-08-08T03:15:57.188Z,23.00
2022-08-08T03:16:48.709Z,22.90
2022-08-08T03:20:11.028Z,22.90
2022-08-08T03:23:04.890Z,22.90
2022-08-08T03:25:57.670Z,22.80
2022-08-08T03:28:53.921Z,22.70
2022-08-08T03:32:07.189Z,22.70
2022-08-08T03:34:56.427Z,22.60
2022-08-08T03:38:53.086Z,22.60
2022-08-08T03:40:42.266Z,22.60
2022-08-08T03:43:38.684Z,22.60
2022-08-08T03:46:32.277Z,22.60
2022-08-08T03:49:56.811Z,22.70
2022-08-08T03:52:15.113Z,22.70
2022-08-08T03:55:55.318Z,22.70
2022-08-08T03:58:33.575Z,22.70
2022-08-08T04:01:23.220Z,22.60
2022-08-08T04:04:02.965Z,22.60
2022-08-08T04:07:00.899Z,22.60
2022-08-08T04:10:05.316Z,22.60
2022-08-08T04:12:51.839Z,22.60
2022-08-08T04:15:55.138Z,22.60
2022-08-08T04:18:44.626Z,22.60
2022-08-08T04:21:29.956Z,22.60
2022-08-08T04:24:29.698Z,22.50
2022-08-08T04:27:42.885Z,22.60
2022-08-08T04:30:18.056Z,22.60
2022-08-08T04:33:05.741Z,22.50
2022-08-08T04:36:00.383Z,22.50
2022-08-08T04:39:13.428Z,22.50
2022-08-08T04:41:44.989Z,22.50
2022-08-08T04:44:37.282Z,22.50
2022-08-08T04:47:29.400Z,22.40
2022-08-08T04:50:25.250Z,22.30
2022-08-08T04:54:36.209Z,22.20
2022-08-08T04:56:08.211Z,22.20
2022-08-08T04:58:59.983Z,22.30
2022-08-08T05:01:52.068Z,22.30
2022-08-08T05:04:45.588Z,22.30
2022-08-08T05:07:42.731Z,22.30
2022-08-08T05:10:31.260Z,22.40
2022-08-08T05:13:25.915Z,22.40
2022-08-08T05:16:52.485Z,22.50
2022-08-08T05:20:12.118Z,22.50
2022-08-08T05:22:06.832Z,22.40
2022-08-08T05:24:58.614Z,22.40
2022-08-08T05:27:50.147Z,22.40
2022-08-08T05:30:47.270Z,22.40
2022-08-08T05:33:48.389Z,22.50
2022-08-08T05:36:30.852Z,22.50
2022-08-08T05:39:25.382Z,22.40
2022-08-08T05:42:25.549Z,22.40
2022-08-08T05:45:25.020Z,22.40
2022-08-08T05:48:09.840Z,22.40
2022-08-08T05:51:14.708Z,22.40
2022-08-08T05:54:28.138Z,22.50
2022-08-08T05:56:48.315Z,22.50
2022-08-08T06:00:01.414Z,22.50
2022-08-08T06:02:56.417Z,22.60
2022-08-08T06:05:52.157Z,22.60
2022-08-08T06:08:53.392Z,22.60
2022-08-08T06:11:45.869Z,22.70
2022-08-08T06:14:33.185Z,22.60
2022-08-08T06:17:50.314Z,22.60
2022-08-08T06:20:21.282Z,22.60
2022-08-08T06:23:15.843Z,22.70
2022-08-08T06:26:43.395Z,22.70
2022-08-08T06:29:18.743Z,22.80
2022-08-08T06:32:09.882Z,22.80
2022-08-08T06:36:04.844Z,22.80
2022-08-08T06:37:55.705Z,22.80
2022-08-08T06:40:53.902Z,22.90
2022-08-08T06:43:47.839Z,22.90
2022-08-08T06:46:40.631Z,23.00
2022-08-08T06:49:54.935Z,23.10
2022-08-08T06:52:28.356Z,23.10
2022-08-08T06:55:21.724Z,23.10
2022-08-08T06:58:13.302Z,23.20
2022-08-08T07:02:18.103Z,23.30
2022-08-08T07:04:41.544Z,23.30
2022-08-08T07:07:20.328Z,23.30
2022-08-08T07:10:13.433Z,23.30
2022-08-08T07:13:07.697Z,23.30
2022-08-08T07:16:10.522Z,23.40
2022-08-08T07:19:08.135Z,23.40
2022-08-08T07:22:05.161Z,23.60
2022-08-08T07:25:01.725Z,23.70
2022-08-08T07:28:02.231Z,23.80
2022-08-08T07:30:51.351Z,23.80
2022-08-08T07:33:53.769Z,23.90
2022-08-08T07:36:37.285Z,23.90
2022-08-08T07:39:55.957Z,23.90
2022-08-08T07:42:33.231Z,24.00
2022-08-08T07:45:19.083Z,24.10
2022-08-08T07:48:12.054Z,24.10
2022-08-08T07:51:04.643Z,24.10
2022-08-08T07:54:05.379Z,24.20
2022-08-08T07:56:59.996Z,24.30
2022-08-08T07:59:58.028Z,24.40
2022-08-08T08:02:52.191Z,24.40
2022-08-08T08:05:50.966Z,24.50
2022-08-08T08:09:07.415Z,24.50
2022-08-08T08:12:26.547Z,24.60
2022-08-08T08:15:09.174Z,24.70
2022-08-08T08:18:04.625Z,24.80
2022-08-08T08:20:56.563Z,24.90
2022-08-08T08:23:50.960Z,25.00
2022-08-08T08:26:47.003Z,25.00
2022-08-08T08:29:35.716Z,25.10
2022-08-08T08:32:35.667Z,25.20
2022-08-08T08:38:27.464Z,25.40
2022-08-08T08:41:31.142Z,25.40
2022-08-08T08:44:22.518Z,25.40
2022-08-08T08:47:17.114Z,25.50
2022-08-08T08:50:31.649Z,25.60
2022-08-08T08:53:54.924Z,25.60
2022-08-08T08:56:08.826Z,25.70
2022-08-08T08:59:14.995Z,25.80
2022-08-08T09:02:04.332Z,25.90
2022-08-08T09:04:59.065Z,25.80
2022-08-08T09:08:13.103Z,25.90
2022-08-08T09:10:48.174Z,26.00
2022-08-08T09:13:50.116Z,26.10
2022-08-08T09:16:44.013Z,26.20
2022-08-08T09:22:04.777Z,26.20
2022-08-08T09:22:32.158Z,26.20
2022-08-08T09:25:24.025Z,26.20
2022-08-08T09:28:35.470Z,26.30
2022-08-08T09:31:15.598Z,26.30
2022-08-08T09:34:31.430Z,26.30
2022-08-08T09:39:47.151Z,26.20
2022-08-08T09:42:44.449Z,26.30
2022-08-08T09:46:00.704Z,26.40
2022-08-08T09:48:36.294Z,26.30
2022-08-08T09:52:01.883Z,26.30
2022-08-08T09:54:37.090Z,26.30
2022-08-08T09:57:31.879Z,26.20
2022-08-08T10:00:49.532Z,26.20
2022-08-08T10:03:26.739Z,26.30
2022-08-08T10:06:19.487Z,26.40
2022-08-08T10:09:59.837Z,26.40
2022-08-08T10:12:54.318Z,26.50
2022-08-08T10:15:40.299Z,26.60
2022-08-08T10:18:35.011Z,26.80
2022-08-08T10:21:33.010Z,26.90
2022-08-08T10:24:38.044Z,26.90
2022-08-08T10:27:34.422Z,26.90
2022-08-08T10:30:57.014Z,26.90
2022-08-08T10:33:19.374Z,27.00
2022-08-08T10:36:22.382Z,27.10
2022-08-08T10:39:07.140Z,27.20
2022-08-08T10:42:16.638Z,27.30
2022-08-08T10:45:01.663Z,27.40
2022-08-08T10:47:59.576Z,27.40
2022-08-08T10:50:58.487Z,27.40
2022-08-08T10:53:57.118Z,27.40
2022-08-08T10:56:48.117Z,27.50
2022-08-08T10:59:40.771Z,27.70
2022-08-08T11:02:34.735Z,27.90
2022-08-08T11:05:38.344Z,28.00
2022-08-08T11:08:42.008Z,28.10
2022-08-08T11:12:04.838Z,28.20
2022-08-08T11:14:50.328Z,28.20
2022-08-08T11:18:00.846Z,28.30
2022-08-08T11:20:52.430Z,28.30
2022-08-08T11:24:04.971Z,28.40
2022-08-08T11:27:01.379Z,28.40
2022-08-08T11:30:04.510Z,28.40
2022-08-08T11:32:52.747Z,28.50
2022-08-08T11:35:46.496Z,28.60
2022-08-08T11:38:53.658Z,28.70
2022-08-08T11:41:32.488Z,28.80
2022-08-08T11:47:39.555Z,29.10
2022-08-08T11:50:23.229Z,29.20
2022-08-08T11:53:15.305Z,29.10
2022-08-08T11:56:07.294Z,29.20
2022-08-08T11:59:08.023Z,29.20
2022-08-08T12:02:31.287Z,29.20
2022-08-08T12:05:12.466Z,29.30
2022-08-08T12:08:02.721Z,29.50
2022-08-08T12:10:57.309Z,29.50
2022-08-08T12:14:03.614Z,29.50
2022-08-08T12:16:53.322Z,29.70
2022-08-08T12:19:51.786Z,29.70
2022-08-08T12:22:49.346Z,29.70
2022-08-08T12:25:44.926Z,29.80
2022-08-08T12:28:36.287Z,29.80
2022-08-08T12:31:39.354Z,29.80
2022-08-08T12:35:00.908Z,29.80
2022-08-08T12:38:02.059Z,29.80
2022-08-08T12:40:55.975Z,30.00
2022-08-08T12:44:00.009Z,30.00
2022-08-08T12:46:41.558Z,29.90
2022-08-08T12:49:43.126Z,30.00
2022-08-08T12:52:32.341Z,30.10
2022-08-08T12:55:29.231Z,30.20
2022-08-08T12:58:19.501Z,30.20
2022-08-08T13:01:13.373Z,30.30
2022-08-08T13:04:19.123Z,30.20
2022-08-08T13:07:17.022Z,30.30
2022-08-08T13:10:10.985Z,30.40
2022-08-08T13:13:05.564Z,30.30
2022-08-08T13:15:59.210Z,30.50
2022-08-08T13:18:57.255Z,30.70
2022-08-08T13:21:53.375Z,30.80
2022-08-08T13:24:48.825Z,30.70
2022-08-08T13:27:37.282Z,30.80
2022-08-08T13:33:09.223Z,30.90
2022-08-08T13:36:01.553Z,31.00
2022-08-08T13:39:01.441Z,31.10
2022-08-08T13:42:01.648Z,31.10
2022-08-08T13:44:58.209Z,31.00
2022-08-08T13:47:59.282Z,31.20
2022-08-08T13:50:56.847Z,31.30
2022-08-08T13:54:00.034Z,31.50
2022-08-08T13:56:59.823Z,31.50
2022-08-08T13:59:48.275Z,31.50
2022-08-08T14:02:36.795Z,31.80
2022-08-08T14:05:38.731Z,32.00
2022-08-08T14:08:34.828Z,32.30
2022-08-08T14:11:28.410Z,32.70
2022-08-08T14:14:26.954Z,33.00
2022-08-08T14:17:22.747Z,33.20
2022-08-08T14:20:15.720Z,33.10
2022-08-08T14:23:21.415Z,33.30
2022-08-08T14:26:11.059Z,33.70
2022-08-08T14:28:57.988Z,33.60
2022-08-08T14:32:09.127Z,33.60
2022-08-08T14:34:52.027Z,34.00
2022-08-08T14:40:59.879Z,34.30
2022-08-08T14:44:10.139Z,34.30
2022-08-08T14:47:01.020Z,34.50
2022-08-08T14:50:06.719Z,34.50
2022-08-08T14:52:52.413Z,34.60
2022-08-08T14:55:45.101Z,34.70
2022-08-08T14:58:37.608Z,34.60
2022-08-08T15:04:31.170Z,34.50
2022-08-08T15:07:39.669Z,35.00
2022-08-08T15:10:28.861Z,35.00
2022-08-08T15:13:19.308Z,35.30
2022-08-08T15:16:14.518Z,35.40
2022-08-08T15:19:07.063Z,35.30
2022-08-08T15:22:04.664Z,35.30
2022-08-08T15:24:56.574Z,35.60
2022-08-08T15:28:03.872Z,35.60
2022-08-08T15:30:41.941Z,36.00
2022-08-08T15:33:38.739Z,36.20
2022-08-08T15:36:28.560Z,36.00
2022-08-08T15:39:19.297Z,35.90
2022-08-08T15:42:17.722Z,35.90
2022-08-08T15:45:05.373Z,36.20
2022-08-08T15:48:15.076Z,36.20
2022-08-08T15:51:02.071Z,36.60
2022-08-08T15:53:54.757Z,36.80
2022-08-08T15:56:47.194Z,37.10
2022-08-08T16:00:12.093Z,36.70
2022-08-08T16:02:33.735Z,36.70
2022-08-08T16:05:35.967Z,36.80
2022-08-08T16:08:20.297Z,37.10
2022-08-08T16:13:11.563Z,37.70
2022-08-08T16:14:15.862Z,37.90
2022-08-08T16:17:06.465Z,37.20
2022-08-08T16:20:00.987Z,37.00
2022-08-08T16:22:52.149Z,36.70
2022-08-08T16:25:46.189Z,36.90
2022-08-08T16:28:38.865Z,36.90
2022-08-08T16:31:32.195Z,36.60
2022-08-08T16:37:02.759Z,36.60
2022-08-08T16:40:01.914Z,37.00
2022-08-08T16:46:43.317Z,37.10
2022-08-08T16:48:27.218Z,37.00
2022-08-08T16:55:01.180Z,36.80
2022-08-08T16:55:06.676Z,36.60
2022-08-08T16:58:13.106Z,36.50
2022-08-08T17:00:27.141Z,36.30
2022-08-08T17:03:10.976Z,36.30
2022-08-08T17:06:03.413Z,36.50
2022-08-08T17:08:55.369Z,36.50
2022-08-08T17:11:51.012Z,36.40
2022-08-08T17:14:41.176Z,36.10
2022-08-08T17:20:39.821Z,35.60
2022-08-08T17:24:01.654Z,35.10
2022-08-08T17:26:41.298Z,34.80
2022-08-08T17:29:36.484Z,34.40
2022-08-08T17:32:28.953Z,34.20
2022-08-08T17:35:53.203Z,34.10
2022-08-08T17:40:54.527Z,33.70
2022-08-08T17:44:00.952Z,33.70
2022-08-08T17:46:42.082Z,33.50
2022-08-08T17:49:42.634Z,33.70
2022-08-08T17:52:27.753Z,33.50
2022-08-08T17:56:05.191Z,33.00
2022-08-08T17:58:14.291Z,32.60
2022-08-08T18:01:10.168Z,32.50
2022-08-08T18:04:01.739Z,32.30
2022-08-08T18:06:54.433Z,32.00
2022-08-08T18:09:53.383Z,31.80
2022-08-08T18:15:35.695Z,31.50
2022-08-08T18:21:10.712Z,31.40
2022-08-08T18:24:02.292Z,31.30
2022-08-08T18:26:56.088Z,31.20
2022-08-08T18:29:48.597Z,31.10
2022-08-08T18:32:41.907Z,30.90
2022-08-08T18:35:41.875Z,30.90
2022-08-08T18:41:06.937Z,30.80
2022-08-08T18:43:58.662Z,30.80
2022-08-08T18:46:55.018Z,30.60
2022-08-08T18:49:57.811Z,30.50
2022-08-08T18:55:31.448Z,30.50
2022-08-08T18:58:27.356Z,30.40
2022-08-08T19:02:26.492Z,30.40
2022-08-08T19:06:51.995Z,30.40
2022-08-08T19:09:48.931Z,30.30
2022-08-08T19:12:44.440Z,30.30
2022-08-08T19:15:34.197Z,30.20
2022-08-08T19:18:33.594Z,30.20
2022-08-08T19:21:28.935Z,30.10
2022-08-08T19:24:39.021Z,30.10
2022-08-08T19:27:04.293Z,30.00
2022-08-08T19:29:57.252Z,30.00
2022-08-08T19:32:48.909Z,29.80
2022-08-08T19:35:45.597Z,29.70
2022-08-08T19:38:33.664Z,29.80
2022-08-08T19:41:29.310Z,29.70
2022-08-08T19:44:42.422Z,29.70
2022-08-08T19:50:00.679Z,29.50
2022-08-08T19:52:54.780Z,29.50
2022-08-08T19:59:02.060Z,29.30
2022-08-08T20:02:03.193Z,29.30
2022-08-08T20:04:47.255Z,29.20
2022-08-08T20:10:19.104Z,29.30
2022-08-08T20:14:34.809Z,29.20
2022-08-08T20:16:10.453Z,29.10
2022-08-08T20:19:01.984Z,29.20
2022-08-08T20:22:04.939Z,29.10
2022-08-08T20:24:53.953Z,29.10
2022-08-08T20:30:53.117Z,28.90
2022-08-08T20:36:17.081Z,28.80
2022-08-08T20:39:09.956Z,28.90
2022-08-08T20:42:05.069Z,28.90
2022-08-08T20:44:58.631Z,28.80
2022-08-08T20:47:57.585Z,28.70
2022-08-08T20:50:45.418Z,28.70
2022-08-08T20:53:59.232Z,28.70
2022-08-08T20:56:35.478Z,28.60
2022-08-08T20:59:22.599Z,28.60
2022-08-08T21:02:25.616Z,28.50
2022-08-08T21:05:09.077Z,28.40
2022-08-08T21:10:39.751Z,28.40
2022-08-08T21:13:40.202Z,28.30
2022-08-08T21:16:29.124Z,28.30
2022-08-08T21:19:16.585Z,28.30
2022-08-08T21:22:09.089Z,28.20
2022-08-08T21:25:00.785Z,28.10
2022-08-08T21:28:09.187Z,28.00
2022-08-08T21:30:49.873Z,28.00
2022-08-08T21:33:39.065Z,27.90
2022-08-08T21:36:30.697Z,27.80
2022-08-08T21:39:27.367Z,27.80
2022-08-08T21:42:18.860Z,27.70
2022-08-08T21:45:44.076Z,27.60
2022-08-08T21:48:19.418Z,27.50
2022-08-08T21:51:03.822Z,27.50
2022-08-08T21:54:35.172Z,27.40
2022-08-08T21:56:49.156Z,27.30
2022-08-08T22:00:02.865Z,27.30
2022-08-08T22:02:33.655Z,27.20
2022-08-08T22:05:25.310Z,27.00
2022-08-08T22:08:24.140Z,26.90
2022-08-08T22:12:02.146Z,26.70
2022-08-08T22:14:03.891Z,26.60
2022-08-08T22:16:56.562Z,26.60
2022-08-08T22:20:10.534Z,26.50
2022-08-08T22:22:42.392Z,26.50
2022-08-08T22:25:41.543Z,26.40
2022-08-08T22:31:06.951Z,26.30
2022-08-08T22:34:13.698Z,26.20
2022-08-08T22:36:51.006Z,26.20
2022-08-08T22:39:45.942Z,26.10
2022-08-08T22:42:36.809Z,26.00
2022-08-08T22:45:29.059Z,26.00
2022-08-08T22:48:21.646Z,26.00
2022-08-08T22:51:12.727Z,26.10
2022-08-08T22:54:34.101Z,26.00
2022-08-08T22:56:58.677Z,26.00
2022-08-08T22:59:58.725Z,26.10
2022-08-08T23:02:44.652Z,25.90
2022-08-08T23:05:38.551Z,25.90
2022-08-08T23:08:35.678Z,25.80
2022-08-08T23:11:22.980Z,25.70
2022-08-08T23:14:15.476Z,25.70
2022-08-08T23:17:07.087Z,25.70
2022-08-08T23:19:58.304Z,25.60
2022-08-08T23:25:28.601Z,25.50
2022-08-08T23:28:20.338Z,25.40
2022-08-08T23:31:11.801Z,25.30
2022-08-08T23:34:16.670Z,25.30
2022-08-08T23:36:58.125Z,25.30
2022-08-08T23:40:05.805Z,25.30
2022-08-08T23:49:03.889Z,24.90
2022-08-08T23:49:04.325Z,24.90
2022-08-08T23:51:42.033Z,24.90
2022-08-08T23:54:43.171Z,24.90
2022-08-08T23:57:27.841Z,24.90
